sensor_id;sensor_type;location;lat;lon;timestamp;temperature;humidity
68648;SHT31;55632;51.962;16.116;2023-04-21T00:03:10;7.87;84.81
68648;SHT31;55632;51.962;16.116;2023-04-21T00:08:12;7.85;84.81
68648;SHT31;55632;51.962;16.116;2023-04-21T00:13:14;7.84;84.83
68648;SHT31;55632;51.962;16.116;2023-04-21T00:18:15;7.88;84.89
68648;SHT31;55632;51.962;16.116;2023-04-21T00:23:17;7.88;84.85
68648;SHT31;55632;51.962;16.116;2023-04-21T00:28:18;7.88;84.77
68648;SHT31;55632;51.962;16.116;2023-04-21T00:33:18;7.85;84.72
68648;SHT31;55632;51.962;16.116;2023-04-21T00:38:20;7.88;84.71
68648;SHT31;55632;51.962;16.116;2023-04-21T00:43:21;7.84;84.60
68648;SHT31;55632;51.962;16.116;2023-04-21T00:48:22;7.83;84.61
68648;SHT31;55632;51.962;16.116;2023-04-21T00:53:23;7.87;84.63
68648;SHT31;55632;51.962;16.116;2023-04-21T00:58:24;7.90;84.48
68648;SHT31;55632;51.962;16.116;2023-04-21T01:03:25;7.88;84.39
68648;SHT31;55632;51.962;16.116;2023-04-21T01:08:26;7.87;84.23
68648;SHT31;55632;51.962;16.116;2023-04-21T01:13:27;7.83;84.34
68648;SHT31;55632;51.962;16.116;2023-04-21T01:18:28;7.81;84.24
68648;SHT31;55632;51.962;16.116;2023-04-21T01:23:29;7.80;84.17
68648;SHT31;55632;51.962;16.116;2023-04-21T01:28:30;7.75;84.22
68648;SHT31;55632;51.962;16.116;2023-04-21T01:33:31;7.74;84.17
68648;SHT31;55632;51.962;16.116;2023-04-21T01:38:32;7.71;84.09
68648;SHT31;55632;51.962;16.116;2023-04-21T01:43:33;7.71;84.13
68648;SHT31;55632;51.962;16.116;2023-04-21T01:48:35;7.74;84.09
68648;SHT31;55632;51.962;16.116;2023-04-21T01:53:37;7.81;84.01
68648;SHT31;55632;51.962;16.116;2023-04-21T01:58:38;7.90;83.93
68648;SHT31;55632;51.962;16.116;2023-04-21T02:03:41;7.97;83.79
68648;SHT31;55632;51.962;16.116;2023-04-21T02:08:42;8.01;83.54
68648;SHT31;55632;51.962;16.116;2023-04-21T02:13:43;8.05;83.38
68648;SHT31;55632;51.962;16.116;2023-04-21T02:18:44;8.10;83.21
68648;SHT31;55632;51.962;16.116;2023-04-21T02:23:45;8.05;83.05
68648;SHT31;55632;51.962;16.116;2023-04-21T02:28:46;8.05;82.94
68648;SHT31;55632;51.962;16.116;2023-04-21T02:33:49;8.05;82.83
68648;SHT31;55632;51.962;16.116;2023-04-21T02:38:50;8.02;82.74
68648;SHT31;55632;51.962;16.116;2023-04-21T02:43:54;7.99;82.66
68648;SHT31;55632;51.962;16.116;2023-04-21T02:48:56;7.91;82.50
68648;SHT31;55632;51.962;16.116;2023-04-21T02:53:57;7.85;82.51
68648;SHT31;55632;51.962;16.116;2023-04-21T02:58:58;7.83;82.42
68648;SHT31;55632;51.962;16.116;2023-04-21T03:03:58;7.75;82.39
68648;SHT31;55632;51.962;16.116;2023-04-21T03:08:59;7.67;82.41
68648;SHT31;55632;51.962;16.116;2023-04-21T03:14:01;7.67;82.40
68648;SHT31;55632;51.962;16.116;2023-04-21T03:19:02;7.60;82.40
68648;SHT31;55632;51.962;16.116;2023-04-21T03:24:05;7.55;82.44
68648;SHT31;55632;51.962;16.116;2023-04-21T03:29:06;7.47;82.51
68648;SHT31;55632;51.962;16.116;2023-04-21T03:34:07;7.40;82.44
68648;SHT31;55632;51.962;16.116;2023-04-21T03:39:09;7.32;82.52
68648;SHT31;55632;51.962;16.116;2023-04-21T03:44:10;7.23;82.64
68648;SHT31;55632;51.962;16.116;2023-04-21T03:49:13;7.16;82.68
68648;SHT31;55632;51.962;16.116;2023-04-21T03:54:14;7.07;82.75
68648;SHT31;55632;51.962;16.116;2023-04-21T03:59:15;7.01;82.90
68648;SHT31;55632;51.962;16.116;2023-04-21T04:04:15;7.04;83.08
68648;SHT31;55632;51.962;16.116;2023-04-21T04:09:16;7.08;83.00
68648;SHT31;55632;51.962;16.116;2023-04-21T04:14:17;7.11;83.04
68648;SHT31;55632;51.962;16.116;2023-04-21T04:19:18;7.18;83.12
68648;SHT31;55632;51.962;16.116;2023-04-21T04:24:18;7.36;83.12
68648;SHT31;55632;51.962;16.116;2023-04-21T04:29:21;7.59;83.01
68648;SHT31;55632;51.962;16.116;2023-04-21T04:34:22;7.87;82.86
68648;SHT31;55632;51.962;16.116;2023-04-21T04:39:23;8.16;82.48
68648;SHT31;55632;51.962;16.116;2023-04-21T04:44:25;8.43;81.95
68648;SHT31;55632;51.962;16.116;2023-04-21T04:49:26;8.72;81.47
68648;SHT31;55632;51.962;16.116;2023-04-21T04:54:26;9.01;80.93
68648;SHT31;55632;51.962;16.116;2023-04-21T04:59:28;9.24;79.89
68648;SHT31;55632;51.962;16.116;2023-04-21T05:04:30;9.47;79.38
68648;SHT31;55632;51.962;16.116;2023-04-21T05:09:31;9.77;78.91
68648;SHT31;55632;51.962;16.116;2023-04-21T05:14:32;10.02;78.07
68648;SHT31;55632;51.962;16.116;2023-04-21T05:19:35;10.24;77.22
68648;SHT31;55632;51.962;16.116;2023-04-21T05:24:42;10.48;76.58
68648;SHT31;55632;51.962;16.116;2023-04-21T05:29:43;10.67;75.43
68648;SHT31;55632;51.962;16.116;2023-04-21T05:34:44;10.83;74.88
68648;SHT31;55632;51.962;16.116;2023-04-21T05:39:45;11.00;73.98
68648;SHT31;55632;51.962;16.116;2023-04-21T05:44:46;11.13;73.35
68648;SHT31;55632;51.962;16.116;2023-04-21T05:49:49;11.24;72.83
68648;SHT31;55632;51.962;16.116;2023-04-21T05:54:51;11.45;72.49
68648;SHT31;55632;51.962;16.116;2023-04-21T05:59:52;11.64;71.80
68648;SHT31;55632;51.962;16.116;2023-04-21T06:04:53;11.83;71.87
68648;SHT31;55632;51.962;16.116;2023-04-21T06:09:53;12.03;71.00
68648;SHT31;55632;51.962;16.116;2023-04-21T06:14:55;12.17;70.21
68648;SHT31;55632;51.962;16.116;2023-04-21T06:19:57;12.35;69.91
68648;SHT31;55632;51.962;16.116;2023-04-21T06:24:58;12.59;69.57
68648;SHT31;55632;51.962;16.116;2023-04-21T06:29:58;12.79;68.75
68648;SHT31;55632;51.962;16.116;2023-04-21T06:34:59;12.96;68.42
68648;SHT31;55632;51.962;16.116;2023-04-21T06:40:00;13.04;67.28
68648;SHT31;55632;51.962;16.116;2023-04-21T06:45:01;13.14;67.32
68648;SHT31;55632;51.962;16.116;2023-04-21T06:50:02;13.28;66.74
68648;SHT31;55632;51.962;16.116;2023-04-21T06:55:04;13.45;66.48
68648;SHT31;55632;51.962;16.116;2023-04-21T07:00:05;13.63;65.82
68648;SHT31;55632;51.962;16.116;2023-04-21T07:05:06;13.80;65.38
68648;SHT31;55632;51.962;16.116;2023-04-21T07:10:07;13.96;64.93
68648;SHT31;55632;51.962;16.116;2023-04-21T07:15:09;14.14;64.56
68648;SHT31;55632;51.962;16.116;2023-04-21T07:20:11;14.29;64.12
68648;SHT31;55632;51.962;16.116;2023-04-21T07:25:12;14.41;63.82
68648;SHT31;55632;51.962;16.116;2023-04-21T07:30:14;14.62;63.17
68648;SHT31;55632;51.962;16.116;2023-04-21T07:35:15;14.76;62.77
68648;SHT31;55632;51.962;16.116;2023-04-21T07:40:16;14.96;62.68
68648;SHT31;55632;51.962;16.116;2023-04-21T07:45:17;15.15;62.15
68648;SHT31;55632;51.962;16.116;2023-04-21T07:50:18;15.25;62.05
68648;SHT31;55632;51.962;16.116;2023-04-21T07:55:19;15.35;61.54
68648;SHT31;55632;51.962;16.116;2023-04-21T08:00:20;15.32;61.55
68648;SHT31;55632;51.962;16.116;2023-04-21T08:05:21;15.34;61.40
68648;SHT31;55632;51.962;16.116;2023-04-21T08:10:22;15.45;61.50
68648;SHT31;55632;51.962;16.116;2023-04-21T08:15:25;15.49;61.00
68648;SHT31;55632;51.962;16.116;2023-04-21T08:20:27;15.48;61.10
68648;SHT31;55632;51.962;16.116;2023-04-21T08:25:27;15.52;61.20
68648;SHT31;55632;51.962;16.116;2023-04-21T08:30:29;15.56;61.20
68648;SHT31;55632;51.962;16.116;2023-04-21T08:35:30;15.60;61.05
68648;SHT31;55632;51.962;16.116;2023-04-21T08:40:36;15.77;61.06
68648;SHT31;55632;51.962;16.116;2023-04-21T08:45:38;15.86;60.61
68648;SHT31;55632;51.962;16.116;2023-04-21T08:50:43;15.98;60.41
68648;SHT31;55632;51.962;16.116;2023-04-21T08:55:45;16.11;59.77
68648;SHT31;55632;51.962;16.116;2023-04-21T09:00:50;16.21;59.57
68648;SHT31;55632;51.962;16.116;2023-04-21T09:06:03;16.29;58.93
68648;SHT31;55632;51.962;16.116;2023-04-21T09:11:04;16.39;59.02
68648;SHT31;55632;51.962;16.116;2023-04-21T09:16:16;16.49;58.88
68648;SHT31;55632;51.962;16.116;2023-04-21T09:21:18;16.63;58.84
68648;SHT31;55632;51.962;16.116;2023-04-21T09:26:20;16.80;58.36
68648;SHT31;55632;51.962;16.116;2023-04-21T09:31:24;16.92;57.79
68648;SHT31;55632;51.962;16.116;2023-04-21T09:36:27;17.01;57.59
68648;SHT31;55632;51.962;16.116;2023-04-21T09:41:29;17.14;57.10
68648;SHT31;55632;51.962;16.116;2023-04-21T09:46:33;17.26;57.36
68648;SHT31;55632;51.962;16.116;2023-04-21T09:51:35;17.42;57.31
68648;SHT31;55632;51.962;16.116;2023-04-21T09:56:39;17.57;55.85
68648;SHT31;55632;51.962;16.116;2023-04-21T10:01:40;17.69;54.75
68648;SHT31;55632;51.962;16.116;2023-04-21T10:06:43;17.76;54.62
68648;SHT31;55632;51.962;16.116;2023-04-21T10:11:44;17.90;54.09
68648;SHT31;55632;51.962;16.116;2023-04-21T10:17:04;18.05;53.15
68648;SHT31;55632;51.962;16.116;2023-04-21T10:22:07;18.12;51.00
68648;SHT31;55632;51.962;16.116;2023-04-21T10:27:10;18.25;50.22
68648;SHT31;55632;51.962;16.116;2023-04-21T10:32:38;18.32;48.86
68648;SHT31;55632;51.962;16.116;2023-04-21T10:37:40;18.42;49.22
68648;SHT31;55632;51.962;16.116;2023-04-21T10:42:44;18.50;48.58
68648;SHT31;55632;51.962;16.116;2023-04-21T10:47:48;18.64;48.31
68648;SHT31;55632;51.962;16.116;2023-04-21T10:52:59;18.67;48.30
68648;SHT31;55632;51.962;16.116;2023-04-21T10:58:07;18.73;47.37
68648;SHT31;55632;51.962;16.116;2023-04-21T11:03:08;18.74;48.10
68648;SHT31;55632;51.962;16.116;2023-04-21T11:08:13;18.81;47.48
68648;SHT31;55632;51.962;16.116;2023-04-21T11:13:15;18.85;47.46
68648;SHT31;55632;51.962;16.116;2023-04-21T11:18:17;18.92;45.95
68648;SHT31;55632;51.962;16.116;2023-04-21T11:23:18;18.92;45.69
68648;SHT31;55632;51.962;16.116;2023-04-21T11:28:22;18.97;44.59
68648;SHT31;55632;51.962;16.116;2023-04-21T11:33:23;19.01;44.50
68648;SHT31;55632;51.962;16.116;2023-04-21T11:38:24;19.04;44.42
68648;SHT31;55632;51.962;16.116;2023-04-21T11:43:25;19.08;43.74
68648;SHT31;55632;51.962;16.116;2023-04-21T11:48:28;19.12;43.36
68648;SHT31;55632;51.962;16.116;2023-04-21T11:53:29;19.11;42.93
68648;SHT31;55632;51.962;16.116;2023-04-21T11:58:30;19.15;41.77
68648;SHT31;55632;51.962;16.116;2023-04-21T12:03:31;19.19;42.56
68648;SHT31;55632;51.962;16.116;2023-04-21T12:08:33;19.18;41.66
68648;SHT31;55632;51.962;16.116;2023-04-21T12:13:34;19.25;42.50
68648;SHT31;55632;51.962;16.116;2023-04-21T12:18:35;19.23;40.96
68648;SHT31;55632;51.962;16.116;2023-04-21T12:23:36;19.25;41.71
68648;SHT31;55632;51.962;16.116;2023-04-21T12:28:41;19.32;40.73
68648;SHT31;55632;51.962;16.116;2023-04-21T12:33:42;19.32;41.40
68648;SHT31;55632;51.962;16.116;2023-04-21T12:38:43;19.22;41.49
68648;SHT31;55632;51.962;16.116;2023-04-21T12:43:44;19.23;40.31
68648;SHT31;55632;51.962;16.116;2023-04-21T12:48:45;19.23;40.75
68648;SHT31;55632;51.962;16.116;2023-04-21T12:53:48;19.29;40.66
68648;SHT31;55632;51.962;16.116;2023-04-21T12:58:50;19.27;40.12
68648;SHT31;55632;51.962;16.116;2023-04-21T13:03:50;19.19;39.34
68648;SHT31;55632;51.962;16.116;2023-04-21T13:08:51;19.16;40.22
68648;SHT31;55632;51.962;16.116;2023-04-21T13:13:52;19.20;40.68
68648;SHT31;55632;51.962;16.116;2023-04-21T13:18:53;19.25;40.60
68648;SHT31;55632;51.962;16.116;2023-04-21T13:23:54;19.22;41.22
68648;SHT31;55632;51.962;16.116;2023-04-21T13:29:01;19.19;40.69
68648;SHT31;55632;51.962;16.116;2023-04-21T13:34:02;19.19;42.14
68648;SHT31;55632;51.962;16.116;2023-04-21T13:39:03;19.25;40.54
68648;SHT31;55632;51.962;16.116;2023-04-21T13:44:05;19.26;40.38
68648;SHT31;55632;51.962;16.116;2023-04-21T13:49:06;19.23;40.93
68648;SHT31;55632;51.962;16.116;2023-04-21T13:54:07;19.11;40.97
68648;SHT31;55632;51.962;16.116;2023-04-21T13:59:07;19.04;41.19
68648;SHT31;55632;51.962;16.116;2023-04-21T14:04:10;19.09;40.00
68648;SHT31;55632;51.962;16.116;2023-04-21T14:09:11;19.08;40.67
68648;SHT31;55632;51.962;16.116;2023-04-21T14:14:12;19.14;39.63
68648;SHT31;55632;51.962;16.116;2023-04-21T14:19:13;19.11;39.92
68648;SHT31;55632;51.962;16.116;2023-04-21T14:24:17;19.11;38.84
68648;SHT31;55632;51.962;16.116;2023-04-21T14:29:18;19.06;38.61
68648;SHT31;55632;51.962;16.116;2023-04-21T14:34:19;19.08;38.87
68648;SHT31;55632;51.962;16.116;2023-04-21T14:39:20;19.08;38.89
68648;SHT31;55632;51.962;16.116;2023-04-21T14:44:21;19.06;38.53
68648;SHT31;55632;51.962;16.116;2023-04-21T14:49:22;19.06;39.12
68648;SHT31;55632;51.962;16.116;2023-04-21T14:54:23;19.05;39.61
68648;SHT31;55632;51.962;16.116;2023-04-21T14:59:23;19.04;39.11
68648;SHT31;55632;51.962;16.116;2023-04-21T15:04:25;19.01;39.00
68648;SHT31;55632;51.962;16.116;2023-04-21T15:09:26;19.02;39.60
68648;SHT31;55632;51.962;16.116;2023-04-21T15:14:27;19.01;38.99
68648;SHT31;55632;51.962;16.116;2023-04-21T15:19:29;18.99;39.04
68648;SHT31;55632;51.962;16.116;2023-04-21T15:24:30;18.95;38.12
68648;SHT31;55632;51.962;16.116;2023-04-21T15:29:31;18.92;39.15
68648;SHT31;55632;51.962;16.116;2023-04-21T15:34:32;18.95;38.27
68648;SHT31;55632;51.962;16.116;2023-04-21T15:39:33;18.89;38.30
68648;SHT31;55632;51.962;16.116;2023-04-21T15:44:34;18.87;38.31
68648;SHT31;55632;51.962;16.116;2023-04-21T15:49:41;18.83;38.34
68648;SHT31;55632;51.962;16.116;2023-04-21T15:54:44;18.78;39.16
68648;SHT31;55632;51.962;16.116;2023-04-21T15:59:48;18.74;39.50
68648;SHT31;55632;51.962;16.116;2023-04-21T16:04:51;18.67;39.03
68648;SHT31;55632;51.962;16.116;2023-04-21T16:09:55;18.61;39.17
68648;SHT31;55632;51.962;16.116;2023-04-21T16:14:56;18.60;38.58
68648;SHT31;55632;51.962;16.116;2023-04-21T16:19:57;18.53;37.99
68648;SHT31;55632;51.962;16.116;2023-04-21T16:24:58;18.46;38.62
68648;SHT31;55632;51.962;16.116;2023-04-21T16:30:02;18.36;38.51
68648;SHT31;55632;51.962;16.116;2023-04-21T16:35:05;18.25;39.15
68648;SHT31;55632;51.962;16.116;2023-04-21T16:40:11;18.16;39.79
68648;SHT31;55632;51.962;16.116;2023-04-21T16:45:13;18.05;40.06
68648;SHT31;55632;51.962;16.116;2023-04-21T16:56:40;17.83;40.86
68648;SHT31;55632;51.962;16.116;2023-04-21T17:14:26;17.28;42.93
68648;SHT31;55632;51.962;16.116;2023-04-21T17:19:38;17.12;43.99
68648;SHT31;55632;51.962;16.116;2023-04-21T17:24:40;17.00;44.90
68648;SHT31;55632;51.962;16.116;2023-04-21T17:29:42;16.84;45.95
68648;SHT31;55632;51.962;16.116;2023-04-21T17:34:43;16.64;46.04
68648;SHT31;55632;51.962;16.116;2023-04-21T17:39:44;16.53;45.72
68648;SHT31;55632;51.962;16.116;2023-04-21T17:44:51;16.39;45.47
68648;SHT31;55632;51.962;16.116;2023-04-21T17:49:52;16.28;45.80
68648;SHT31;55632;51.962;16.116;2023-04-21T17:54:54;16.11;46.16
68648;SHT31;55632;51.962;16.116;2023-04-21T17:59:58;15.98;46.78
68648;SHT31;55632;51.962;16.116;2023-04-21T18:05:00;15.80;47.19
68648;SHT31;55632;51.962;16.116;2023-04-21T18:10:01;15.63;47.35
68648;SHT31;55632;51.962;16.116;2023-04-21T18:15:04;15.46;47.66
68648;SHT31;55632;51.962;16.116;2023-04-21T18:20:06;15.34;47.81
68648;SHT31;55632;51.962;16.116;2023-04-21T18:25:07;15.24;48.03
68648;SHT31;55632;51.962;16.116;2023-04-21T18:30:09;15.11;48.15
68648;SHT31;55632;51.962;16.116;2023-04-21T18:35:10;14.97;48.44
68648;SHT31;55632;51.962;16.116;2023-04-21T18:40:14;14.89;48.62
68648;SHT31;55632;51.962;16.116;2023-04-21T18:45:15;14.76;48.68
68648;SHT31;55632;51.962;16.116;2023-04-21T18:50:16;14.61;49.01
68648;SHT31;55632;51.962;16.116;2023-04-21T18:55:17;14.49;49.21
68648;SHT31;55632;51.962;16.116;2023-04-21T19:00:25;14.39;49.54
68648;SHT31;55632;51.962;16.116;2023-04-21T19:05:27;14.29;49.77
68648;SHT31;55632;51.962;16.116;2023-04-21T19:10:31;14.18;49.83
68648;SHT31;55632;51.962;16.116;2023-04-21T19:15:34;14.13;49.86
68648;SHT31;55632;51.962;16.116;2023-04-21T19:20:36;14.03;49.81
68648;SHT31;55632;51.962;16.116;2023-04-21T19:25:37;13.96;49.74
68648;SHT31;55632;51.962;16.116;2023-04-21T19:30:39;13.84;49.85
68648;SHT31;55632;51.962;16.116;2023-04-21T19:35:42;13.79;49.84
68648;SHT31;55632;51.962;16.116;2023-04-21T19:40:43;13.72;49.80
68648;SHT31;55632;51.962;16.116;2023-04-21T19:45:51;13.59;49.71
68648;SHT31;55632;51.962;16.116;2023-04-21T19:50:52;13.54;49.71
68648;SHT31;55632;51.962;16.116;2023-04-21T19:55:56;13.45;49.75
68648;SHT31;55632;51.962;16.116;2023-04-21T20:00:57;13.35;49.87
68648;SHT31;55632;51.962;16.116;2023-04-21T20:05:59;13.25;49.96
68648;SHT31;55632;51.962;16.116;2023-04-21T20:11:01;13.13;50.25
68648;SHT31;55632;51.962;16.116;2023-04-21T20:16:02;13.02;50.42
68648;SHT31;55632;51.962;16.116;2023-04-21T20:21:03;12.89;50.49
68648;SHT31;55632;51.962;16.116;2023-04-21T20:26:04;12.80;50.71
68648;SHT31;55632;51.962;16.116;2023-04-21T20:31:05;12.69;51.08
68648;SHT31;55632;51.962;16.116;2023-04-21T20:36:07;12.52;51.80
68648;SHT31;55632;51.962;16.116;2023-04-21T20:41:08;12.30;52.54
68648;SHT31;55632;51.962;16.116;2023-04-21T20:46:08;12.14;53.57
68648;SHT31;55632;51.962;16.116;2023-04-21T20:51:13;11.93;54.65
68648;SHT31;55632;51.962;16.116;2023-04-21T20:56:14;11.71;55.36
68648;SHT31;55632;51.962;16.116;2023-04-21T21:01:15;11.47;56.09
68648;SHT31;55632;51.962;16.116;2023-04-21T21:06:17;11.26;56.87
68648;SHT31;55632;51.962;16.116;2023-04-21T21:11:19;11.14;57.63
68648;SHT31;55632;51.962;16.116;2023-04-21T21:16:21;10.99;58.42
68648;SHT31;55632;51.962;16.116;2023-04-21T21:21:24;10.76;59.21
68648;SHT31;55632;51.962;16.116;2023-04-21T21:26:26;10.62;60.01
68648;SHT31;55632;51.962;16.116;2023-04-21T21:31:27;10.45;60.62
68648;SHT31;55632;51.962;16.116;2023-04-21T21:36:29;10.33;61.11
68648;SHT31;55632;51.962;16.116;2023-04-21T21:41:31;10.19;61.32
68648;SHT31;55632;51.962;16.116;2023-04-21T21:46:32;10.08;61.70
68648;SHT31;55632;51.962;16.116;2023-04-21T21:51:33;9.95;62.05
68648;SHT31;55632;51.962;16.116;2023-04-21T21:56:34;9.85;62.35
68648;SHT31;55632;51.962;16.116;2023-04-21T22:01:36;9.71;62.75
68648;SHT31;55632;51.962;16.116;2023-04-21T22:06:36;9.58;63.13
68648;SHT31;55632;51.962;16.116;2023-04-21T22:11:38;9.46;63.51
68648;SHT31;55632;51.962;16.116;2023-04-21T22:16:38;9.33;63.81
68648;SHT31;55632;51.962;16.116;2023-04-21T22:21:42;9.22;64.24
68648;SHT31;55632;51.962;16.116;2023-04-21T22:26:43;9.08;64.69
68648;SHT31;55632;51.962;16.116;2023-04-21T22:31:44;8.95;65.22
68648;SHT31;55632;51.962;16.116;2023-04-21T22:36:45;8.79;65.65
68648;SHT31;55632;51.962;16.116;2023-04-21T22:41:46;8.67;66.10
68648;SHT31;55632;51.962;16.116;2023-04-21T22:46:47;8.56;66.44
68648;SHT31;55632;51.962;16.116;2023-04-21T22:51:48;8.44;66.83
68648;SHT31;55632;51.962;16.116;2023-04-21T22:56:49;8.39;67.17
68648;SHT31;55632;51.962;16.116;2023-04-21T23:01:50;8.30;67.59
68648;SHT31;55632;51.962;16.116;2023-04-21T23:06:51;8.21;68.00
68648;SHT31;55632;51.962;16.116;2023-04-21T23:11:52;8.12;68.44
68648;SHT31;55632;51.962;16.116;2023-04-21T23:16:53;8.05;68.76
68648;SHT31;55632;51.962;16.116;2023-04-21T23:21:54;7.88;69.02
68648;SHT31;55632;51.962;16.116;2023-04-21T23:26:55;7.75;69.29
68648;SHT31;55632;51.962;16.116;2023-04-21T23:31:55;7.70;69.34
68648;SHT31;55632;51.962;16.116;2023-04-21T23:36:56;7.73;69.29
68648;SHT31;55632;51.962;16.116;2023-04-21T23:41:57;7.67;69.31
68648;SHT31;55632;51.962;16.116;2023-04-21T23:46:59;7.63;69.43
68648;SHT31;55632;51.962;16.116;2023-04-21T23:52:00;7.57;69.67
68648;SHT31;55632;51.962;16.116;2023-04-21T23:57:01;7.52;69.88
